AirNav   TITAN Aviation Fuels
 
 1548 users online  

CT11 Devils Hopyard Field Airport
East Haddam, Connecticut, USA

GOING TO EAST HADDAM?


FAA INFORMATION EFFECTIVE 01 DECEMBER 2022

Location

FAA Identifier: CT11
Lat/Long: 41-26-38.3540N 072-20-20.2990W
41-26.639233N 072-20.338317W
41.4439872,-72.3389719
(estimated)
Elevation: 125 ft. / 38 m (estimated)
Variation: 14W (1985)
From city: 4 miles N of EAST HADDAM, CT
Time zone: UTC -5 (UTC -4 during Daylight Saving Time)
Zip code: 06423

Airport Operations

Airport use: Private use. Permission required prior to landing
Activation date: 01/1972
Control tower: no
ARTCC: BOSTON CENTER
FSS: BRIDGEPORT FLIGHT SERVICE STATION
Attendance: IREG
Wind indicator: yes
Segmented circle: no

Airport Communications

WX AWOS-3 at SNC (8 nm SW): 118.325 (860-526-1551)
WX ASOS at GON (15 nm SE): 127.0 (860-449-8921)
WX ASOS at IJD (19 nm N): 133.675 (860-456-8839)

Nearby radio navigation aids

VOR radial/distance  VOR name  Freq  Var
GONr312/14.6GROTON VOR/DME110.8514W
HFDr155/15.1HARTFORD VOR/DME114.9013W
ORWr260/16.7NORWICH VOR/DME110.0014W
MADr077/17.7MADISON VOR/DME110.4013W
HTOr011/31.5HAMPTON VORTAC113.6013W
CCCr047/37.2CALVERTON VOR/DME117.2013W
PUTr230/37.9PUTNAM VOR/DME117.4014W
SEYr311/38.2SANDY POINT VOR/DME117.8015W
BDRr076/39.3BRIDGEPORT VOR/DME108.8012W

Airport Services

Airframe service: NONE
Powerplant service: NONE

Runway Information

Runway N/S

Dimensions: 1250 x 200 ft. / 381 x 61 m
Surface: turf
RUNWAY N  RUNWAY S
Traffic pattern: leftleft

Airport Ownership and Management from official FAA records

Ownership: Privately-owned
Owner: DEBORAH MAZER
72 SALEM RD
LYME, CT 06371
Phone 860-434-8022
Manager: DEBORAH MAZER
72 SALEM RD
LYME, CT 06371
Phone 860-434-8022

Additional Remarks

FOR CD CTC PROVIDENCE APCH AT 401-738-8945, WHEN APCH CLSD CTC BOSTON ARTCC AT 603-879-6859.

Instrument Procedures

There are no published instrument procedures at CT11.

Some nearby airports with instrument procedures:

KSNC - Chester Airport (8 nm SW)
KGON - Groton-New London Airport (15 nm SE)
0B8 - Elizabeth Field Airport (18 nm SE)
KIJD - Windham Airport (19 nm N)
KMMK - Meriden Markham Municipal Airport (22 nm W)
 
Loc | Ops | Rwys | IFR | FBO | Links
Com | Nav | Svcs | Stats | Notes

Silver City Flying Club
 
Area around CT11 (Devils Hopyard Field Airport)
 
Road maps at: MapQuest Bing Google
 
Aerial photo
No photo
 
Sectional chart

 
Airport distance calculator
Flying to Devils Hopyard Field Airport? Find the distance to fly.

From to CT11

Sunrise and sunset
Times for 08-Dec-2022
 Local
(UTC-5)
 Zulu
(UTC)
Morning civil twilight06:3311:33
Sunrise07:0412:04
Sunset16:1921:19
Evening civil twilight16:5021:50

Current date and time
Zulu (UTC)  08-Dec-2022 15:55:33
Local (UTC-5)  08-Dec-2022 10:55:33
 
METAR
KSNC 
8nm SW 
081535Z AUTO 31011G22KT 10SM CLR 11/03 A3019 RMK AO2
KGON 
15nm SE 
081456Z 32017G24KT 10SM CLR 12/04 A3016 RMK AO2 PK WND 33027/1439 SLP212 T01170044 51006
KIJD 
20nm N 
081452Z AUTO 33013G18KT 290V360 10SM CLR 10/03 A3019 RMK AO2 SLP225 T01000028 51015
TAF
KGON 
15nm SE 
081120Z 0812/0912 33009KT P6SM FEW250 FM081500 33012G20KT P6SM FEW035 SCT250 FM082100 33011KT P6SM FEW035 SCT250 FM090300 35008KT P6SM SCT250
NOTAMs
Click for the latest NOTAMs
NOTAMs are issued by the DoD/FAA and will open in a separate window not controlled by AirNav.

 

 
 

Would you like to see your business listed on this page?

 If your business provides an interesting product or service to pilots, flight crews, aircraft, or users of the Devils Hopyard Field Airport, you should consider listing it here.  To start the listing process, click on the button below
 
Add a business
 

Other Pages about Devils Hopyard Field Airport

Update a link
 
Copyright © AirNav, LLC. All rights reserved. Privacy Policy  Contact